sensor_id;sensor_type;location;lat;lon;timestamp;pressure;altitude;pressure_sealevel;temperature;humidity
31357;BME280;60001;48.404;11.738;2023-07-13T00:01:07;96248.56;;;21.62;81.64
31357;BME280;60001;48.404;11.738;2023-07-13T00:02:38;96253.63;;;21.64;81.74
31357;BME280;60001;48.404;11.738;2023-07-13T00:04:10;96242.88;;;21.64;81.50
31357;BME280;60001;48.404;11.738;2023-07-13T00:05:43;96259.31;;;21.62;81.89
31357;BME280;60001;48.404;11.738;2023-07-13T00:07:14;96263.91;;;21.62;81.56
31357;BME280;60001;48.404;11.738;2023-07-13T00:08:46;96259.94;;;21.68;81.92
31357;BME280;60001;48.404;11.738;2023-07-13T00:10:18;96259.28;;;21.71;81.61
31357;BME280;60001;48.404;11.738;2023-07-13T00:11:51;96244.41;;;21.74;81.60
31357;BME280;60001;48.404;11.738;2023-07-13T00:13:23;96253.59;;;21.73;81.09
31357;BME280;60001;48.404;11.738;2023-07-13T00:14:56;96242.50;;;21.74;81.33
31357;BME280;60001;48.404;11.738;2023-07-13T00:16:28;96245.97;;;21.75;80.67
31357;BME280;60001;48.404;11.738;2023-07-13T00:18:01;96249.31;;;21.72;81.08
31357;BME280;60001;48.404;11.738;2023-07-13T00:19:33;96248.38;;;21.68;81.64
31357;BME280;60001;48.404;11.738;2023-07-13T00:21:08;96235.94;;;21.63;81.97
31357;BME280;60001;48.404;11.738;2023-07-13T00:22:39;96230.75;;;21.58;82.23
31357;BME280;60001;48.404;11.738;2023-07-13T00:24:14;96238.47;;;21.59;81.75
31357;BME280;60001;48.404;11.738;2023-07-13T00:25:46;96239.41;;;21.64;81.98
31357;BME280;60001;48.404;11.738;2023-07-13T00:27:18;96234.34;;;21.62;81.39
31357;BME280;60001;48.404;11.738;2023-07-13T00:28:50;96241.78;;;21.65;81.53
31357;BME280;60001;48.404;11.738;2023-07-13T00:30:22;96235.13;;;21.62;81.58
31357;BME280;60001;48.404;11.738;2023-07-13T00:31:53;96242.41;;;21.62;81.60
31357;BME280;60001;48.404;11.738;2023-07-13T00:33:27;96242.72;;;21.60;81.80
31357;BME280;60001;48.404;11.738;2023-07-13T00:34:57;96243.53;;;21.61;81.71
31357;BME280;60001;48.404;11.738;2023-07-13T00:38:03;96248.09;;;21.60;81.78
31357;BME280;60001;48.404;11.738;2023-07-13T00:39:35;96242.59;;;21.57;81.87
31357;BME280;60001;48.404;11.738;2023-07-13T00:41:10;96235.19;;;21.54;82.29
31357;BME280;60001;48.404;11.738;2023-07-13T00:42:41;96239.94;;;21.48;82.02
31357;BME280;60001;48.404;11.738;2023-07-13T00:44:13;96238.06;;;21.49;82.74
31357;BME280;60001;48.404;11.738;2023-07-13T00:46:19;96245.94;;;21.54;82.57
31357;BME280;60001;48.404;11.738;2023-07-13T00:47:51;96248.28;;;21.55;82.13
31357;BME280;60001;48.404;11.738;2023-07-13T00:49:25;96250.19;;;21.55;82.45
31357;BME280;60001;48.404;11.738;2023-07-13T00:51:00;96250.66;;;21.57;82.25
31357;BME280;60001;48.404;11.738;2023-07-13T00:52:36;96251.13;;;21.59;82.11
31357;BME280;60001;48.404;11.738;2023-07-13T00:54:13;96248.78;;;21.57;81.79
31357;BME280;60001;48.404;11.738;2023-07-13T00:55:46;96251.44;;;21.57;81.86
31357;BME280;60001;48.404;11.738;2023-07-13T00:57:21;96240.38;;;21.59;81.63
31357;BME280;60001;48.404;11.738;2023-07-13T00:58:53;96236.56;;;21.60;81.68
31357;BME280;60001;48.404;11.738;2023-07-13T01:00:26;96249.09;;;21.56;81.61
31357;BME280;60001;48.404;11.738;2023-07-13T01:01:57;96245.00;;;21.50;82.15
31357;BME280;60001;48.404;11.738;2023-07-13T01:03:29;96241.06;;;21.47;82.60
31357;BME280;60001;48.404;11.738;2023-07-13T01:05:00;96247.22;;;21.48;82.46
31357;BME280;60001;48.404;11.738;2023-07-13T01:06:32;96245.31;;;21.48;82.28
31357;BME280;60001;48.404;11.738;2023-07-13T01:08:04;96247.69;;;21.50;82.62
31357;BME280;60001;48.404;11.738;2023-07-13T01:09:36;96245.31;;;21.48;82.19
31357;BME280;60001;48.404;11.738;2023-07-13T01:11:08;96244.41;;;21.44;82.66
31357;BME280;60001;48.404;11.738;2023-07-13T01:12:39;96247.41;;;21.43;82.21
31357;BME280;60001;48.404;11.738;2023-07-13T01:14:10;96238.38;;;21.47;82.57
31357;BME280;60001;48.404;11.738;2023-07-13T01:15:46;96239.94;;;21.48;82.32
31357;BME280;60001;48.404;11.738;2023-07-13T01:17:17;96236.78;;;21.46;82.97
31357;BME280;60001;48.404;11.738;2023-07-13T01:18:49;96230.97;;;21.44;82.42
31357;BME280;60001;48.404;11.738;2023-07-13T01:20:19;96236.00;;;21.46;83.05
31357;BME280;60001;48.404;11.738;2023-07-13T01:21:53;96222.25;;;21.47;82.57
31357;BME280;60001;48.404;11.738;2023-07-13T01:23:25;96225.59;;;21.44;82.23
31357;BME280;60001;48.404;11.738;2023-07-13T01:24:57;96230.19;;;21.44;82.73
31357;BME280;60001;48.404;11.738;2023-07-13T01:26:28;96226.72;;;21.43;82.72
31357;BME280;60001;48.404;11.738;2023-07-13T01:27:59;96215.97;;;21.43;82.79
31357;BME280;60001;48.404;11.738;2023-07-13T01:29:32;96218.66;;;21.43;82.81
31357;BME280;60001;48.404;11.738;2023-07-13T01:31:04;96209.03;;;21.42;83.12
31357;BME280;60001;48.404;11.738;2023-07-13T01:32:35;96219.88;;;21.46;82.51
31357;BME280;60001;48.404;11.738;2023-07-13T01:34:07;96217.22;;;21.46;83.12
31357;BME280;60001;48.404;11.738;2023-07-13T01:35:38;96219.25;;;21.49;82.68
31357;BME280;60001;48.404;11.738;2023-07-13T01:37:12;96210.09;;;21.50;82.47
31357;BME280;60001;48.404;11.738;2023-07-13T01:38:44;96220.84;;;21.50;82.60
31357;BME280;60001;48.404;11.738;2023-07-13T01:40:15;96202.03;;;21.50;82.55
31357;BME280;60001;48.404;11.738;2023-07-13T01:41:46;96214.34;;;21.51;82.35
31357;BME280;60001;48.404;11.738;2023-07-13T01:43:19;96209.31;;;21.49;82.19
31357;BME280;60001;48.404;11.738;2023-07-13T01:44:50;96212.78;;;21.50;82.41
31357;BME280;60001;48.404;11.738;2023-07-13T01:46:21;96218.28;;;21.53;82.17
31357;BME280;60001;48.404;11.738;2023-07-13T01:47:53;96210.53;;;21.52;82.40
31357;BME280;60001;48.404;11.738;2023-07-13T01:49:24;96212.13;;;21.53;82.53
31357;BME280;60001;48.404;11.738;2023-07-13T01:50:55;96209.31;;;21.49;82.15
31357;BME280;60001;48.404;11.738;2023-07-13T01:52:28;96214.84;;;21.44;82.57
31357;BME280;60001;48.404;11.738;2023-07-13T01:53:59;96217.38;;;21.49;82.41
31357;BME280;60001;48.404;11.738;2023-07-13T01:55:31;96212.00;;;21.49;82.22
31357;BME280;60001;48.404;11.738;2023-07-13T01:57:02;96213.06;;;21.48;82.26
31357;BME280;60001;48.404;11.738;2023-07-13T01:58:34;96211.00;;;21.54;82.35
31357;BME280;60001;48.404;11.738;2023-07-13T02:00:08;96202.94;;;21.54;81.73
31357;BME280;60001;48.404;11.738;2023-07-13T02:01:41;96213.34;;;21.55;81.85
31357;BME280;60001;48.404;11.738;2023-07-13T02:03:12;96216.84;;;21.56;82.10
31357;BME280;60001;48.404;11.738;2023-07-13T02:04:48;96221.13;;;21.57;81.78
31357;BME280;60001;48.404;11.738;2023-07-13T02:06:20;96216.38;;;21.54;81.54
31357;BME280;60001;48.404;11.738;2023-07-13T02:07:53;96214.81;;;21.53;81.61
31357;BME280;60001;48.404;11.738;2023-07-13T02:09:23;96222.88;;;21.53;82.00
31357;BME280;60001;48.404;11.738;2023-07-13T02:10:55;96230.47;;;21.51;82.02
31357;BME280;60001;48.404;11.738;2023-07-13T02:12:26;96228.09;;;21.49;82.29
31357;BME280;60001;48.404;11.738;2023-07-13T02:13:58;96225.41;;;21.49;82.24
31357;BME280;60001;48.404;11.738;2023-07-13T02:15:30;96230.78;;;21.49;81.97
31357;BME280;60001;48.404;11.738;2023-07-13T02:17:02;96225.41;;;21.49;82.21
31357;BME280;60001;48.404;11.738;2023-07-13T02:18:33;96224.47;;;21.45;81.74
31357;BME280;60001;48.404;11.738;2023-07-13T02:20:06;96232.38;;;21.42;81.68
31357;BME280;60001;48.404;11.738;2023-07-13T02:21:37;96233.03;;;21.39;81.70
31357;BME280;60001;48.404;11.738;2023-07-13T02:23:10;96236.50;;;21.39;82.05
31357;BME280;60001;48.404;11.738;2023-07-13T02:24:42;96230.69;;;21.37;81.94
31357;BME280;60001;48.404;11.738;2023-07-13T02:26:13;96232.59;;;21.37;82.35
31357;BME280;60001;48.404;11.738;2023-07-13T02:27:44;96229.91;;;21.37;81.66
31357;BME280;60001;48.404;11.738;2023-07-13T02:29:15;96234.16;;;21.38;82.06
31357;BME280;60001;48.404;11.738;2023-07-13T02:30:47;96222.47;;;21.33;81.84
31357;BME280;60001;48.404;11.738;2023-07-13T02:32:18;96227.72;;;21.30;82.34
31357;BME280;60001;48.404;11.738;2023-07-13T02:33:49;96219.78;;;21.33;82.25
31357;BME280;60001;48.404;11.738;2023-07-13T02:35:20;96233.03;;;21.39;82.13
31357;BME280;60001;48.404;11.738;2023-07-13T02:36:52;96210.03;;;21.29;81.66
31357;BME280;60001;48.404;11.738;2023-07-13T02:38:24;96230.69;;;21.37;81.36
31357;BME280;60001;48.404;11.738;2023-07-13T02:39:56;96233.81;;;21.39;81.97
31357;BME280;60001;48.404;11.738;2023-07-13T02:41:27;96238.41;;;21.39;81.76
31357;BME280;60001;48.404;11.738;2023-07-13T02:42:59;96236.06;;;21.37;81.46
31357;BME280;60001;48.404;11.738;2023-07-13T02:44:30;96246.34;;;21.35;81.87
31357;BME280;60001;48.404;11.738;2023-07-13T02:46:02;96234.00;;;21.34;81.86
31357;BME280;60001;48.404;11.738;2023-07-13T02:47:37;96237.78;;;21.33;81.78
31357;BME280;60001;48.404;11.738;2023-07-13T02:49:09;96240.03;;;21.31;82.04
31357;BME280;60001;48.404;11.738;2023-07-13T02:50:40;96234.31;;;21.32;81.81
31357;BME280;60001;48.404;11.738;2023-07-13T02:52:11;96235.59;;;21.35;81.49
31357;BME280;60001;48.404;11.738;2023-07-13T02:53:43;96241.41;;;21.37;81.69
31357;BME280;60001;48.404;11.738;2023-07-13T02:55:15;96253.75;;;21.38;81.74
31357;BME280;60001;48.404;11.738;2023-07-13T02:56:46;96251.50;;;21.40;81.54
31357;BME280;60001;48.404;11.738;2023-07-13T02:58:18;96258.00;;;21.39;81.78
31357;BME280;60001;48.404;11.738;2023-07-13T02:59:49;96266.38;;;21.38;81.70
31357;BME280;60001;48.404;11.738;2023-07-13T03:01:21;96271.44;;;21.39;81.28
31357;BME280;60001;48.404;11.738;2023-07-13T03:02:52;96270.81;;;21.42;81.09
31357;BME280;60001;48.404;11.738;2023-07-13T03:04:23;96271.88;;;21.41;81.22
31357;BME280;60001;48.404;11.738;2023-07-13T03:05:59;96268.75;;;21.39;81.51
31357;BME280;60001;48.404;11.738;2023-07-13T03:07:32;96264.03;;;21.36;81.54
31357;BME280;60001;48.404;11.738;2023-07-13T03:09:05;96257.38;;;21.33;81.46
31357;BME280;60001;48.404;11.738;2023-07-13T03:10:36;96270.19;;;21.37;81.98
31357;BME280;60001;48.404;11.738;2023-07-13T03:12:08;96268.28;;;21.37;81.39
31357;BME280;60001;48.404;11.738;2023-07-13T03:13:39;96271.13;;;21.32;81.75
31357;BME280;60001;48.404;11.738;2023-07-13T03:15:11;96270.81;;;21.33;82.07
31357;BME280;60001;48.404;11.738;2023-07-13T03:16:43;96273.69;;;21.28;82.37
31357;BME280;60001;48.404;11.738;2023-07-13T03:18:14;96267.78;;;21.26;82.56
31357;BME280;60001;48.404;11.738;2023-07-13T03:19:45;96270.22;;;21.28;82.41
31357;BME280;60001;48.404;11.738;2023-07-13T03:21:19;96269.38;;;21.27;82.83
31357;BME280;60001;48.404;11.738;2023-07-13T03:22:50;96274.47;;;21.29;82.86
31357;BME280;60001;48.404;11.738;2023-07-13T03:24:23;96276.63;;;21.27;82.75
31357;BME280;60001;48.404;11.738;2023-07-13T03:26:04;96282.22;;;21.22;83.12
31357;BME280;60001;48.404;11.738;2023-07-13T03:27:36;96274.16;;;21.22;82.50
31357;BME280;60001;48.404;11.738;2023-07-13T03:29:07;96275.72;;;21.23;83.04
31357;BME280;60001;48.404;11.738;2023-07-13T03:30:39;96270.47;;;21.26;82.93
31357;BME280;60001;48.404;11.738;2023-07-13T03:32:09;96280.13;;;21.27;82.96
31357;BME280;60001;48.404;11.738;2023-07-13T03:33:41;96270.81;;;21.25;83.06
31357;BME280;60001;48.404;11.738;2023-07-13T03:35:12;96281.09;;;21.31;83.04
31357;BME280;60001;48.404;11.738;2023-07-13T03:36:44;96280.31;;;21.31;82.80
31357;BME280;60001;48.404;11.738;2023-07-13T03:38:16;96281.88;;;21.32;82.11
31357;BME280;60001;48.404;11.738;2023-07-13T03:39:48;96283.31;;;21.29;82.94
31357;BME280;60001;48.404;11.738;2023-07-13T03:41:21;96280.13;;;21.27;82.86
31357;BME280;60001;48.404;11.738;2023-07-13T03:42:52;96289.94;;;21.23;82.76
31357;BME280;60001;48.404;11.738;2023-07-13T03:44:24;96291.22;;;21.17;83.44
31357;BME280;60001;48.404;11.738;2023-07-13T03:45:55;96291.88;;;21.14;83.90
31357;BME280;60001;48.404;11.738;2023-07-13T03:47:27;96286.50;;;21.14;83.86
31357;BME280;60001;48.404;11.738;2023-07-13T03:48:59;96280.97;;;21.11;83.73
31357;BME280;60001;48.404;11.738;2023-07-13T03:50:30;96293.56;;;21.19;83.97
31357;BME280;60001;48.404;11.738;2023-07-13T03:52:02;96287.09;;;21.20;83.54
31357;BME280;60001;48.404;11.738;2023-07-13T03:53:37;96294.53;;;21.23;83.50
31357;BME280;60001;48.404;11.738;2023-07-13T03:55:10;96289.31;;;21.18;83.41
31357;BME280;60001;48.404;11.738;2023-07-13T03:56:42;96293.56;;;21.19;84.10
31357;BME280;60001;48.404;11.738;2023-07-13T03:58:28;96286.94;;;21.25;83.55
31357;BME280;60001;48.404;11.738;2023-07-13T04:00:00;96282.53;;;21.29;83.14
31357;BME280;60001;48.404;11.738;2023-07-13T04:01:33;96280.97;;;21.28;82.74
31357;BME280;60001;48.404;11.738;2023-07-13T04:03:04;96289.81;;;21.28;83.38
31357;BME280;60001;48.404;11.738;2023-07-13T04:04:36;96290.72;;;21.24;83.49
31357;BME280;60001;48.404;11.738;2023-07-13T04:06:16;96297.22;;;21.23;83.49
31357;BME280;60001;48.404;11.738;2023-07-13T04:07:51;96294.34;;;21.19;83.49
31357;BME280;60001;48.404;11.738;2023-07-13T04:09:22;96296.72;;;21.21;83.42
31357;BME280;60001;48.404;11.738;2023-07-13T04:10:55;96294.53;;;21.23;83.69
31357;BME280;60001;48.404;11.738;2023-07-13T04:12:27;96296.09;;;21.24;83.64
31357;BME280;60001;48.404;11.738;2023-07-13T04:13:58;96303.69;;;21.22;84.06
31357;BME280;60001;48.404;11.738;2023-07-13T04:15:31;96295.34;;;21.15;83.47
31357;BME280;60001;48.404;11.738;2023-07-13T04:17:03;96299.09;;;21.14;83.81
31357;BME280;60001;48.404;11.738;2023-07-13T04:18:34;96297.06;;;21.11;84.21
31357;BME280;60001;48.404;11.738;2023-07-13T04:20:06;96297.22;;;21.14;84.20
31357;BME280;60001;48.404;11.738;2023-07-13T04:21:38;96296.91;;;21.16;84.33
31357;BME280;60001;48.404;11.738;2023-07-13T04:23:09;96291.03;;;21.14;84.57
31357;BME280;60001;48.404;11.738;2023-07-13T04:24:40;96296.41;;;21.14;84.17
31357;BME280;60001;48.404;11.738;2023-07-13T04:26:13;96301.50;;;21.15;84.51
31357;BME280;60001;48.404;11.738;2023-07-13T04:27:44;96305.41;;;21.18;84.12
31357;BME280;60001;48.404;11.738;2023-07-13T04:29:16;96307.47;;;21.21;84.17
31357;BME280;60001;48.404;11.738;2023-07-13T04:30:47;96304.31;;;21.19;84.31
31357;BME280;60001;48.404;11.738;2023-07-13T04:32:18;96303.38;;;21.15;83.87
31357;BME280;60001;48.404;11.738;2023-07-13T04:33:50;96304.31;;;21.19;84.38
31357;BME280;60001;48.404;11.738;2023-07-13T04:35:21;96313.47;;;21.18;84.53
31357;BME280;60001;48.404;11.738;2023-07-13T04:36:53;96317.28;;;21.17;84.53
31357;BME280;60001;48.404;11.738;2023-07-13T04:38:26;96310.16;;;21.12;84.64
31357;BME280;60001;48.404;11.738;2023-07-13T04:39:59;96318.72;;;21.14;84.69
31357;BME280;60001;48.404;11.738;2023-07-13T04:41:31;96318.38;;;21.16;84.05
31357;BME280;60001;48.404;11.738;2023-07-13T04:43:03;96325.66;;;21.15;84.45
31357;BME280;60001;48.404;11.738;2023-07-13T04:44:33;96326.91;;;21.18;84.23
31357;BME280;60001;48.404;11.738;2023-07-13T04:46:08;96316.94;;;21.18;84.52
31357;BME280;60001;48.404;11.738;2023-07-13T04:47:40;96319.63;;;21.18;84.41
31357;BME280;60001;48.404;11.738;2023-07-13T04:49:12;96319.19;;;21.16;84.61
31357;BME280;60001;48.404;11.738;2023-07-13T04:50:45;96325.00;;;21.18;84.62
31357;BME280;60001;48.404;11.738;2023-07-13T04:52:16;96329.59;;;21.18;84.75
31357;BME280;60001;48.404;11.738;2023-07-13T04:53:47;96323.75;;;21.16;84.45
31357;BME280;60001;48.404;11.738;2023-07-13T04:55:19;96337.16;;;21.24;83.91
31357;BME280;60001;48.404;11.738;2023-07-13T04:56:53;96330.22;;;21.23;83.92
31357;BME280;60001;48.404;11.738;2023-07-13T04:58:24;96333.38;;;21.25;83.48
31357;BME280;60001;48.404;11.738;2023-07-13T04:59:56;96331.00;;;21.24;83.25
31357;BME280;60001;48.404;11.738;2023-07-13T05:01:27;96329.75;;;21.21;83.72
31357;BME280;60001;48.404;11.738;2023-07-13T05:02:58;96337.47;;;21.23;83.88
31357;BME280;60001;48.404;11.738;2023-07-13T05:04:30;96331.47;;;21.26;83.20
31357;BME280;60001;48.404;11.738;2023-07-13T05:06:04;96334.16;;;21.26;82.65
31357;BME280;60001;48.404;11.738;2023-07-13T05:07:36;96339.53;;;21.26;82.88
31357;BME280;60001;48.404;11.738;2023-07-13T05:09:06;96340.81;;;21.28;82.76
31357;BME280;60001;48.404;11.738;2023-07-13T05:10:38;96344.56;;;21.27;82.64
31357;BME280;60001;48.404;11.738;2023-07-13T05:12:10;96342.22;;;21.26;82.08
31357;BME280;60001;48.404;11.738;2023-07-13T05:13:42;96341.41;;;21.25;82.26
31357;BME280;60001;48.404;11.738;2023-07-13T05:15:13;96340.97;;;21.23;81.09
31357;BME280;60001;48.404;11.738;2023-07-13T05:16:45;96348.38;;;21.26;81.55
31357;BME280;60001;48.404;11.738;2023-07-13T05:18:17;96365.00;;;21.28;81.60
31357;BME280;60001;48.404;11.738;2023-07-13T05:19:48;96337.97;;;21.16;82.18
31357;BME280;60001;48.404;11.738;2023-07-13T05:21:20;96358.66;;;21.24;81.82
31357;BME280;60001;48.404;11.738;2023-07-13T05:22:50;96370.19;;;21.25;81.83
31357;BME280;60001;48.404;11.738;2023-07-13T05:24:22;96371.59;;;21.22;81.93
31357;BME280;60001;48.404;11.738;2023-07-13T05:25:55;96366.53;;;21.21;81.93
31357;BME280;60001;48.404;11.738;2023-07-13T05:27:27;96367.50;;;21.16;82.07
31357;BME280;60001;48.404;11.738;2023-07-13T05:28:58;96369.72;;;21.14;82.13
31357;BME280;60001;48.404;11.738;2023-07-13T05:30:29;96375.38;;;21.13;82.36
31357;BME280;60001;48.404;11.738;2023-07-13T05:32:01;96373.19;;;21.15;82.81
31357;BME280;60001;48.404;11.738;2023-07-13T05:33:32;96351.25;;;21.04;82.76
31357;BME280;60001;48.404;11.738;2023-07-13T05:35:04;96357.09;;;21.15;82.55
31357;BME280;60001;48.404;11.738;2023-07-13T05:36:35;96362.59;;;21.18;82.20
31357;BME280;60001;48.404;11.738;2023-07-13T05:38:06;96360.25;;;21.17;81.92
31357;BME280;60001;48.404;11.738;2023-07-13T05:39:37;96362.91;;;21.17;80.62
31357;BME280;60001;48.404;11.738;2023-07-13T05:41:09;96359.91;;;21.18;79.88
31357;BME280;60001;48.404;11.738;2023-07-13T05:42:41;96362.91;;;21.17;78.26
31357;BME280;60001;48.404;11.738;2023-07-13T05:44:13;96362.75;;;21.13;78.96
31357;BME280;60001;48.404;11.738;2023-07-13T05:45:43;96358.50;;;21.12;79.41
31357;BME280;60001;48.404;11.738;2023-07-13T05:47:15;96359.28;;;21.13;79.21
31357;BME280;60001;48.404;11.738;2023-07-13T05:48:46;96357.38;;;21.13;79.31
31357;BME280;60001;48.404;11.738;2023-07-13T05:50:18;96357.72;;;21.12;79.10
31357;BME280;60001;48.404;11.738;2023-07-13T05:51:49;96360.25;;;21.08;79.26
31357;BME280;60001;48.404;11.738;2023-07-13T05:53:21;96357.56;;;21.08;79.49
31357;BME280;60001;48.404;11.738;2023-07-13T05:54:52;96357.06;;;21.06;79.12
31357;BME280;60001;48.404;11.738;2023-07-13T05:56:23;96356.16;;;21.02;79.41
31357;BME280;60001;48.404;11.738;2023-07-13T05:57:57;96360.41;;;21.03;79.54
31357;BME280;60001;48.404;11.738;2023-07-13T05:59:29;96366.09;;;21.01;79.89
31357;BME280;60001;48.404;11.738;2023-07-13T06:01:03;96376.84;;;21.01;79.57
31357;BME280;60001;48.404;11.738;2023-07-13T06:02:35;96373.19;;;20.97;79.40
31357;BME280;60001;48.404;11.738;2023-07-13T06:04:07;96375.56;;;20.99;79.73
31357;BME280;60001;48.404;11.738;2023-07-13T06:05:38;96375.25;;;21.00;79.72
31357;BME280;60001;48.404;11.738;2023-07-13T06:07:10;96383.47;;;21.04;79.71
31357;BME280;60001;48.404;11.738;2023-07-13T06:08:42;96386.00;;;21.09;79.49
31357;BME280;60001;48.404;11.738;2023-07-13T06:10:13;96375.38;;;21.13;78.86
31357;BME280;60001;48.404;11.738;2023-07-13T06:11:45;96382.66;;;21.21;78.53
31357;BME280;60001;48.404;11.738;2023-07-13T06:13:17;96388.97;;;21.25;78.77
31357;BME280;60001;48.404;11.738;2023-07-13T06:14:49;96392.66;;;21.29;78.92
31357;BME280;60001;48.404;11.738;2023-07-13T06:16:20;96384.59;;;21.29;78.81
31357;BME280;60001;48.404;11.738;2023-07-13T06:17:52;96381.56;;;21.30;78.85
31357;BME280;60001;48.404;11.738;2023-07-13T06:19:23;96381.72;;;21.34;78.57
31357;BME280;60001;48.404;11.738;2023-07-13T06:20:54;96382.03;;;21.32;77.29
31357;BME280;60001;48.404;11.738;2023-07-13T06:22:25;96382.03;;;21.32;76.87
31357;BME280;60001;48.404;11.738;2023-07-13T06:23:57;96391.97;;;21.41;76.88
31357;BME280;60001;48.404;11.738;2023-07-13T06:25:27;96384.53;;;21.46;75.44
31357;BME280;60001;48.404;11.738;2023-07-13T06:26:59;96389.59;;;21.56;75.49
31357;BME280;60001;48.404;11.738;2023-07-13T06:28:33;96392.09;;;21.61;74.27
31357;BME280;60001;48.404;11.738;2023-07-13T06:30:05;96388.44;;;21.66;73.01
31357;BME280;60001;48.404;11.738;2023-07-13T06:31:37;96394.00;;;21.70;73.01
31357;BME280;60001;48.404;11.738;2023-07-13T06:33:09;96396.69;;;21.70;73.47
31357;BME280;60001;48.404;11.738;2023-07-13T06:34:39;96393.19;;;21.69;74.66
31357;BME280;60001;48.404;11.738;2023-07-13T06:36:11;96393.66;;;21.71;72.10
31357;BME280;60001;48.404;11.738;2023-07-13T06:37:42;96392.09;;;21.70;71.17
31357;BME280;60001;48.404;11.738;2023-07-13T06:39:14;96395.25;;;21.72;69.49
31357;BME280;60001;48.404;11.738;2023-07-13T06:40:45;96394.00;;;21.70;69.15
31357;BME280;60001;48.404;11.738;2023-07-13T06:42:17;96399.53;;;21.65;69.45
31357;BME280;60001;48.404;11.738;2023-07-13T06:43:49;96394.63;;;21.67;69.32
31357;BME280;60001;48.404;11.738;2023-07-13T06:45:21;96391.75;;;21.72;70.18
31357;BME280;60001;48.404;11.738;2023-07-13T06:46:52;96392.38;;;21.77;69.89
31357;BME280;60001;48.404;11.738;2023-07-13T06:48:23;96391.91;;;21.84;70.32
31357;BME280;60001;48.404;11.738;2023-07-13T06:49:54;96394.25;;;21.85;69.87
31357;BME280;60001;48.404;11.738;2023-07-13T06:51:26;96405.75;;;21.95;68.98
31357;BME280;60001;48.404;11.738;2023-07-13T06:52:57;96402.13;;;21.99;68.00
31357;BME280;60001;48.404;11.738;2023-07-13T06:54:30;96413.00;;;22.03;68.78
31357;BME280;60001;48.404;11.738;2023-07-13T06:56:00;96403.97;;;22.07;69.47
31357;BME280;60001;48.404;11.738;2023-07-13T06:57:32;96410.63;;;22.10;69.41
31357;BME280;60001;48.404;11.738;2023-07-13T06:59:04;96421.22;;;22.06;70.00
31357;BME280;60001;48.404;11.738;2023-07-13T07:00:36;96426.44;;;22.03;66.97
31357;BME280;60001;48.404;11.738;2023-07-13T07:02:09;96425.03;;;21.97;66.99
31357;BME280;60001;48.404;11.738;2023-07-13T07:03:43;96420.78;;;21.96;66.36
31357;BME280;60001;48.404;11.738;2023-07-13T07:05:14;96425.38;;;21.95;67.03
31357;BME280;60001;48.404;11.738;2023-07-13T07:06:46;96431.84;;;21.94;67.79
31357;BME280;60001;48.404;11.738;2023-07-13T07:08:17;96425.53;;;21.90;66.98
31357;BME280;60001;48.404;11.738;2023-07-13T07:09:49;96428.06;;;21.95;67.54
31357;BME280;60001;48.404;11.738;2023-07-13T07:11:22;96430.13;;;21.98;67.74
31357;BME280;60001;48.404;11.738;2023-07-13T07:12:54;96424.88;;;22.02;67.94
31357;BME280;60001;48.404;11.738;2023-07-13T07:14:26;96425.66;;;22.02;67.90
31357;BME280;60001;48.404;11.738;2023-07-13T07:15:58;96430.41;;;22.05;68.30
31357;BME280;60001;48.404;11.738;2023-07-13T07:17:30;96441.00;;;22.10;67.16
31357;BME280;60001;48.404;11.738;2023-07-13T07:19:02;96439.56;;;22.04;65.38
31357;BME280;60001;48.404;11.738;2023-07-13T07:20:33;96442.25;;;22.04;65.95
31357;BME280;60001;48.404;11.738;2023-07-13T07:22:04;96431.50;;;22.04;66.67
31357;BME280;60001;48.404;11.738;2023-07-13T07:23:35;96434.84;;;22.10;63.48
31357;BME280;60001;48.404;11.738;2023-07-13T07:25:07;96436.88;;;22.04;63.20
31357;BME280;60001;48.404;11.738;2023-07-13T07:26:38;96433.72;;;22.02;64.12
31357;BME280;60001;48.404;11.738;2023-07-13T07:28:10;96440.84;;;22.07;65.55
31357;BME280;60001;48.404;11.738;2023-07-13T07:29:43;96439.25;;;22.06;66.36
31357;BME280;60001;48.404;11.738;2023-07-13T07:31:14;96444.63;;;22.06;65.83
31357;BME280;60001;48.404;11.738;2023-07-13T07:32:46;96444.47;;;22.02;65.04
31357;BME280;60001;48.404;11.738;2023-07-13T07:34:16;96446.38;;;22.02;61.78
31357;BME280;60001;48.404;11.738;2023-07-13T07:35:48;96439.75;;;21.99;62.91
31357;BME280;60001;48.404;11.738;2023-07-13T07:37:19;96444.03;;;22.00;63.81
31357;BME280;60001;48.404;11.738;2023-07-13T07:38:51;96446.72;;;22.00;62.97
31357;BME280;60001;48.404;11.738;2023-07-13T07:40:21;96444.19;;;21.95;63.48
31357;BME280;60001;48.404;11.738;2023-07-13T07:41:53;96449.56;;;21.95;64.08
31357;BME280;60001;48.404;11.738;2023-07-13T07:43:24;96441.03;;;21.93;63.94
31357;BME280;60001;48.404;11.738;2023-07-13T07:44:57;96450.34;;;21.96;65.23
31357;BME280;60001;48.404;11.738;2023-07-13T07:46:28;96451.13;;;21.96;65.68
31357;BME280;60001;48.404;11.738;2023-07-13T07:47:59;96455.41;;;21.97;65.38
31357;BME280;60001;48.404;11.738;2023-07-13T07:49:30;96453.38;;;21.94;64.12
31357;BME280;60001;48.404;11.738;2023-07-13T07:51:02;96458.28;;;21.92;64.31
31357;BME280;60001;48.404;11.738;2023-07-13T07:52:34;96457.66;;;21.86;64.27
31357;BME280;60001;48.404;11.738;2023-07-13T07:54:05;96456.41;;;21.84;63.94
31357;BME280;60001;48.404;11.738;2023-07-13T07:55:37;96462.88;;;21.83;64.81
31357;BME280;60001;48.404;11.738;2023-07-13T07:57:08;96461.47;;;21.85;65.53
31357;BME280;60001;48.404;11.738;2023-07-13T07:58:40;96466.19;;;21.88;66.14
31357;BME280;60001;48.404;11.738;2023-07-13T08:00:14;96464.28;;;21.89;66.48
31357;BME280;60001;48.404;11.738;2023-07-13T08:01:45;96465.41;;;21.88;65.60
31357;BME280;60001;48.404;11.738;2023-07-13T08:03:18;96467.63;;;21.86;63.80